sensor_id;sensor_type;location;lat;lon;timestamp;P1;durP1;ratioP1;P2;durP2;ratioP2
4140;SDS011;2084;51.05870200;6.92092300;2022-08-21T00:00:20;17.30;;;12.33;;
4140;SDS011;2084;51.05870200;6.92092300;2022-08-21T00:02:49;30.77;;;13.27;;
4140;SDS011;2084;51.05870200;6.92092300;2022-08-21T00:05:17;19.10;;;12.13;;
4140;SDS011;2084;51.05870200;6.92092300;2022-08-21T00:07:45;18.20;;;12.43;;
4140;SDS011;2084;51.05870200;6.92092300;2022-08-21T00:10:12;25.23;;;12.70;;
4140;SDS011;2084;51.05870200;6.92092300;2022-08-21T00:12:39;14.13;;;11.43;;
4140;SDS011;2084;51.05870200;6.92092300;2022-08-21T00:15:08;24.47;;;12.50;;
4140;SDS011;2084;51.05870200;6.92092300;2022-08-21T00:17:38;18.07;;;12.50;;
4140;SDS011;2084;51.05870200;6.92092300;2022-08-21T00:20:05;17.90;;;13.00;;
4140;SDS011;2084;51.05870200;6.92092300;2022-08-21T00:22:34;16.00;;;13.43;;
4140;SDS011;2084;51.05870200;6.92092300;2022-08-21T00:25:01;17.00;;;14.23;;
4140;SDS011;2084;51.05870200;6.92092300;2022-08-21T00:27:27;20.60;;;14.13;;
4140;SDS011;2084;51.05870200;6.92092300;2022-08-21T00:29:54;21.13;;;15.43;;
4140;SDS011;2084;51.05870200;6.92092300;2022-08-21T00:32:21;19.90;;;14.17;;
4140;SDS011;2084;51.05870200;6.92092300;2022-08-21T00:34:49;17.90;;;13.13;;
4140;SDS011;2084;51.05870200;6.92092300;2022-08-21T00:37:16;19.30;;;12.43;;
4140;SDS011;2084;51.05870200;6.92092300;2022-08-21T00:39:44;20.70;;;12.30;;
4140;SDS011;2084;51.05870200;6.92092300;2022-08-21T00:42:10;16.57;;;12.80;;
4140;SDS011;2084;51.05870200;6.92092300;2022-08-21T00:44:39;12.60;;;11.03;;
4140;SDS011;2084;51.05870200;6.92092300;2022-08-21T00:47:06;17.80;;;12.30;;
4140;SDS011;2084;51.05870200;6.92092300;2022-08-21T00:49:33;16.73;;;12.83;;
4140;SDS011;2084;51.05870200;6.92092300;2022-08-21T00:52:02;16.47;;;13.17;;
4140;SDS011;2084;51.05870200;6.92092300;2022-08-21T00:54:31;22.60;;;13.23;;
4140;SDS011;2084;51.05870200;6.92092300;2022-08-21T00:57:00;17.67;;;10.70;;
4140;SDS011;2084;51.05870200;6.92092300;2022-08-21T00:59:31;22.23;;;13.87;;
4140;SDS011;2084;51.05870200;6.92092300;2022-08-21T01:02:00;19.90;;;12.97;;
4140;SDS011;2084;51.05870200;6.92092300;2022-08-21T01:04:28;16.73;;;12.73;;
4140;SDS011;2084;51.05870200;6.92092300;2022-08-21T01:06:54;14.97;;;13.37;;
4140;SDS011;2084;51.05870200;6.92092300;2022-08-21T01:09:22;18.27;;;14.00;;
4140;SDS011;2084;51.05870200;6.92092300;2022-08-21T01:11:49;19.23;;;12.10;;
4140;SDS011;2084;51.05870200;6.92092300;2022-08-21T01:14:15;21.03;;;11.63;;
4140;SDS011;2084;51.05870200;6.92092300;2022-08-21T01:16:45;19.90;;;14.20;;
4140;SDS011;2084;51.05870200;6.92092300;2022-08-21T01:19:14;25.10;;;12.80;;
4140;SDS011;2084;51.05870200;6.92092300;2022-08-21T01:21:44;13.50;;;11.93;;
4140;SDS011;2084;51.05870200;6.92092300;2022-08-21T01:24:12;19.47;;;12.27;;
4140;SDS011;2084;51.05870200;6.92092300;2022-08-21T01:26:39;22.40;;;13.43;;
4140;SDS011;2084;51.05870200;6.92092300;2022-08-21T01:29:09;26.00;;;13.00;;
4140;SDS011;2084;51.05870200;6.92092300;2022-08-21T01:31:40;17.10;;;12.70;;
4140;SDS011;2084;51.05870200;6.92092300;2022-08-21T01:34:07;17.07;;;11.77;;
4140;SDS011;2084;51.05870200;6.92092300;2022-08-21T01:36:34;17.20;;;11.67;;
4140;SDS011;2084;51.05870200;6.92092300;2022-08-21T01:39:03;18.97;;;13.10;;
4140;SDS011;2084;51.05870200;6.92092300;2022-08-21T01:41:31;22.10;;;13.47;;
4140;SDS011;2084;51.05870200;6.92092300;2022-08-21T01:43:57;22.83;;;14.90;;
4140;SDS011;2084;51.05870200;6.92092300;2022-08-21T01:46:24;21.97;;;13.70;;
4140;SDS011;2084;51.05870200;6.92092300;2022-08-21T01:48:51;23.03;;;12.53;;
4140;SDS011;2084;51.05870200;6.92092300;2022-08-21T01:51:18;14.90;;;13.47;;
4140;SDS011;2084;51.05870200;6.92092300;2022-08-21T01:53:44;15.80;;;13.57;;
4140;SDS011;2084;51.05870200;6.92092300;2022-08-21T01:56:14;24.70;;;13.50;;
4140;SDS011;2084;51.05870200;6.92092300;2022-08-21T01:58:42;19.90;;;12.63;;
4140;SDS011;2084;51.05870200;6.92092300;2022-08-21T02:01:11;21.17;;;13.50;;
4140;SDS011;2084;51.05870200;6.92092300;2022-08-21T02:03:38;21.90;;;14.37;;
4140;SDS011;2084;51.05870200;6.92092300;2022-08-21T02:06:06;20.20;;;13.70;;
4140;SDS011;2084;51.05870200;6.92092300;2022-08-21T02:08:38;22.30;;;14.53;;
4140;SDS011;2084;51.05870200;6.92092300;2022-08-21T02:11:05;14.13;;;12.73;;
4140;SDS011;2084;51.05870200;6.92092300;2022-08-21T02:13:33;17.20;;;14.97;;
4140;SDS011;2084;51.05870200;6.92092300;2022-08-21T02:15:59;19.80;;;13.30;;
4140;SDS011;2084;51.05870200;6.92092300;2022-08-21T02:18:26;28.27;;;13.90;;
4140;SDS011;2084;51.05870200;6.92092300;2022-08-21T02:20:52;22.23;;;13.50;;
4140;SDS011;2084;51.05870200;6.92092300;2022-08-21T02:23:19;18.33;;;13.63;;
4140;SDS011;2084;51.05870200;6.92092300;2022-08-21T02:25:45;13.80;;;11.20;;
4140;SDS011;2084;51.05870200;6.92092300;2022-08-21T02:28:13;16.83;;;13.07;;
4140;SDS011;2084;51.05870200;6.92092300;2022-08-21T02:30:42;22.80;;;15.80;;
4140;SDS011;2084;51.05870200;6.92092300;2022-08-21T02:33:11;16.93;;;14.37;;
4140;SDS011;2084;51.05870200;6.92092300;2022-08-21T02:35:40;14.80;;;12.87;;
4140;SDS011;2084;51.05870200;6.92092300;2022-08-21T02:38:09;17.63;;;13.70;;
4140;SDS011;2084;51.05870200;6.92092300;2022-08-21T02:40:40;19.83;;;13.90;;
4140;SDS011;2084;51.05870200;6.92092300;2022-08-21T02:43:08;15.30;;;12.60;;
4140;SDS011;2084;51.05870200;6.92092300;2022-08-21T02:45:35;33.30;;;14.27;;
4140;SDS011;2084;51.05870200;6.92092300;2022-08-21T02:48:05;21.40;;;15.37;;
4140;SDS011;2084;51.05870200;6.92092300;2022-08-21T02:50:36;15.73;;;13.07;;
4140;SDS011;2084;51.05870200;6.92092300;2022-08-21T02:53:04;24.37;;;13.87;;
4140;SDS011;2084;51.05870200;6.92092300;2022-08-21T02:55:32;23.97;;;15.30;;
4140;SDS011;2084;51.05870200;6.92092300;2022-08-21T02:58:00;31.13;;;14.63;;
4140;SDS011;2084;51.05870200;6.92092300;2022-08-21T03:00:28;15.60;;;14.20;;
4140;SDS011;2084;51.05870200;6.92092300;2022-08-21T03:02:56;15.90;;;12.73;;
4140;SDS011;2084;51.05870200;6.92092300;2022-08-21T03:05:25;27.03;;;14.90;;
4140;SDS011;2084;51.05870200;6.92092300;2022-08-21T03:07:53;20.97;;;14.97;;
4140;SDS011;2084;51.05870200;6.92092300;2022-08-21T03:10:21;23.73;;;13.90;;
4140;SDS011;2084;51.05870200;6.92092300;2022-08-21T03:12:48;16.30;;;12.80;;
4140;SDS011;2084;51.05870200;6.92092300;2022-08-21T03:15:19;16.50;;;14.07;;
4140;SDS011;2084;51.05870200;6.92092300;2022-08-21T03:17:47;24.67;;;14.77;;
4140;SDS011;2084;51.05870200;6.92092300;2022-08-21T03:20:15;21.33;;;14.30;;
4140;SDS011;2084;51.05870200;6.92092300;2022-08-21T03:22:44;25.20;;;17.13;;
4140;SDS011;2084;51.05870200;6.92092300;2022-08-21T03:25:11;21.20;;;14.67;;
4140;SDS011;2084;51.05870200;6.92092300;2022-08-21T03:27:37;23.70;;;14.93;;
4140;SDS011;2084;51.05870200;6.92092300;2022-08-21T03:30:05;25.93;;;16.00;;
4140;SDS011;2084;51.05870200;6.92092300;2022-08-21T03:32:33;29.73;;;14.70;;
4140;SDS011;2084;51.05870200;6.92092300;2022-08-21T03:35:00;27.10;;;13.97;;
4140;SDS011;2084;51.05870200;6.92092300;2022-08-21T03:37:27;20.57;;;13.10;;
4140;SDS011;2084;51.05870200;6.92092300;2022-08-21T03:39:55;38.90;;;15.50;;
4140;SDS011;2084;51.05870200;6.92092300;2022-08-21T03:42:21;18.00;;;13.30;;
4140;SDS011;2084;51.05870200;6.92092300;2022-08-21T03:44:48;22.03;;;15.13;;
4140;SDS011;2084;51.05870200;6.92092300;2022-08-21T03:47:15;22.50;;;15.10;;
4140;SDS011;2084;51.05870200;6.92092300;2022-08-21T03:49:41;21.90;;;13.87;;
4140;SDS011;2084;51.05870200;6.92092300;2022-08-21T03:52:08;18.10;;;13.07;;
4140;SDS011;2084;51.05870200;6.92092300;2022-08-21T03:54:35;22.07;;;14.20;;
4140;SDS011;2084;51.05870200;6.92092300;2022-08-21T03:57:02;28.13;;;13.90;;
4140;SDS011;2084;51.05870200;6.92092300;2022-08-21T03:59:29;21.10;;;14.60;;
4140;SDS011;2084;51.05870200;6.92092300;2022-08-21T04:01:56;23.23;;;14.10;;
4140;SDS011;2084;51.05870200;6.92092300;2022-08-21T04:04:26;21.20;;;13.33;;
4140;SDS011;2084;51.05870200;6.92092300;2022-08-21T04:06:54;19.10;;;14.77;;
4140;SDS011;2084;51.05870200;6.92092300;2022-08-21T04:09:21;19.57;;;13.40;;
4140;SDS011;2084;51.05870200;6.92092300;2022-08-21T04:11:48;21.83;;;12.65;;
4140;SDS011;2084;51.05870200;6.92092300;2022-08-21T04:14:17;15.20;;;13.40;;
4140;SDS011;2084;51.05870200;6.92092300;2022-08-21T04:16:45;17.53;;;12.67;;
4140;SDS011;2084;51.05870200;6.92092300;2022-08-21T04:19:12;29.10;;;13.67;;
4140;SDS011;2084;51.05870200;6.92092300;2022-08-21T04:21:40;21.10;;;11.77;;
4140;SDS011;2084;51.05870200;6.92092300;2022-08-21T04:24:08;15.00;;;12.90;;
4140;SDS011;2084;51.05870200;6.92092300;2022-08-21T04:26:36;21.60;;;13.60;;
4140;SDS011;2084;51.05870200;6.92092300;2022-08-21T04:29:04;16.97;;;14.10;;
4140;SDS011;2084;51.05870200;6.92092300;2022-08-21T04:31:33;16.53;;;14.47;;
4140;SDS011;2084;51.05870200;6.92092300;2022-08-21T04:33:59;20.03;;;12.53;;
4140;SDS011;2084;51.05870200;6.92092300;2022-08-21T04:36:26;24.80;;;15.03;;
4140;SDS011;2084;51.05870200;6.92092300;2022-08-21T04:38:52;23.17;;;15.17;;
4140;SDS011;2084;51.05870200;6.92092300;2022-08-21T04:41:19;22.13;;;15.57;;
4140;SDS011;2084;51.05870200;6.92092300;2022-08-21T04:43:46;24.27;;;14.07;;
4140;SDS011;2084;51.05870200;6.92092300;2022-08-21T04:46:12;24.20;;;15.27;;
4140;SDS011;2084;51.05870200;6.92092300;2022-08-21T04:48:40;14.27;;;12.97;;
4140;SDS011;2084;51.05870200;6.92092300;2022-08-21T04:51:07;20.70;;;14.13;;
4140;SDS011;2084;51.05870200;6.92092300;2022-08-21T04:53:39;17.10;;;13.57;;
4140;SDS011;2084;51.05870200;6.92092300;2022-08-21T04:56:09;22.30;;;13.20;;
4140;SDS011;2084;51.05870200;6.92092300;2022-08-21T04:58:40;15.53;;;12.93;;
4140;SDS011;2084;51.05870200;6.92092300;2022-08-21T05:01:09;16.20;;;12.63;;
4140;SDS011;2084;51.05870200;6.92092300;2022-08-21T05:03:40;20.00;;;13.27;;
4140;SDS011;2084;51.05870200;6.92092300;2022-08-21T05:06:08;19.70;;;14.17;;
4140;SDS011;2084;51.05870200;6.92092300;2022-08-21T05:08:38;16.60;;;13.13;;
4140;SDS011;2084;51.05870200;6.92092300;2022-08-21T05:11:05;19.53;;;10.90;;
4140;SDS011;2084;51.05870200;6.92092300;2022-08-21T05:13:32;14.30;;;12.83;;
4140;SDS011;2084;51.05870200;6.92092300;2022-08-21T05:15:59;15.70;;;12.70;;
4140;SDS011;2084;51.05870200;6.92092300;2022-08-21T05:18:25;13.57;;;11.60;;
4140;SDS011;2084;51.05870200;6.92092300;2022-08-21T05:20:54;12.77;;;10.50;;
4140;SDS011;2084;51.05870200;6.92092300;2022-08-21T05:23:20;24.67;;;13.00;;
4140;SDS011;2084;51.05870200;6.92092300;2022-08-21T05:25:47;14.60;;;11.63;;
4140;SDS011;2084;51.05870200;6.92092300;2022-08-21T05:28:13;21.93;;;12.80;;
4140;SDS011;2084;51.05870200;6.92092300;2022-08-21T05:30:40;15.03;;;13.03;;
4140;SDS011;2084;51.05870200;6.92092300;2022-08-21T05:33:06;17.30;;;11.93;;
4140;SDS011;2084;51.05870200;6.92092300;2022-08-21T05:35:33;12.33;;;10.13;;
4140;SDS011;2084;51.05870200;6.92092300;2022-08-21T05:38:01;17.70;;;12.37;;
4140;SDS011;2084;51.05870200;6.92092300;2022-08-21T05:40:28;17.20;;;11.07;;
4140;SDS011;2084;51.05870200;6.92092300;2022-08-21T05:42:55;19.73;;;11.47;;
4140;SDS011;2084;51.05870200;6.92092300;2022-08-21T05:45:25;11.37;;;10.33;;
4140;SDS011;2084;51.05870200;6.92092300;2022-08-21T05:47:53;15.40;;;10.37;;
4140;SDS011;2084;51.05870200;6.92092300;2022-08-21T05:50:19;24.37;;;13.20;;
4140;SDS011;2084;51.05870200;6.92092300;2022-08-21T05:52:46;18.00;;;12.40;;
4140;SDS011;2084;51.05870200;6.92092300;2022-08-21T05:55:14;15.50;;;12.60;;
4140;SDS011;2084;51.05870200;6.92092300;2022-08-21T05:57:41;13.40;;;12.30;;
4140;SDS011;2084;51.05870200;6.92092300;2022-08-21T06:00:08;13.90;;;12.57;;
4140;SDS011;2084;51.05870200;6.92092300;2022-08-21T06:02:37;15.83;;;13.90;;
4140;SDS011;2084;51.05870200;6.92092300;2022-08-21T06:05:04;20.40;;;12.00;;
4140;SDS011;2084;51.05870200;6.92092300;2022-08-21T06:07:30;23.90;;;13.70;;
4140;SDS011;2084;51.05870200;6.92092300;2022-08-21T06:09:57;21.20;;;14.67;;
4140;SDS011;2084;51.05870200;6.92092300;2022-08-21T06:12:25;15.77;;;13.57;;
4140;SDS011;2084;51.05870200;6.92092300;2022-08-21T06:14:52;20.80;;;14.20;;
4140;SDS011;2084;51.05870200;6.92092300;2022-08-21T06:17:18;20.93;;;13.30;;
4140;SDS011;2084;51.05870200;6.92092300;2022-08-21T06:19:45;30.97;;;14.70;;
4140;SDS011;2084;51.05870200;6.92092300;2022-08-21T06:22:11;15.73;;;14.10;;
4140;SDS011;2084;51.05870200;6.92092300;2022-08-21T06:24:38;20.07;;;14.50;;
4140;SDS011;2084;51.05870200;6.92092300;2022-08-21T06:27:05;18.03;;;13.80;;
4140;SDS011;2084;51.05870200;6.92092300;2022-08-21T06:29:33;20.00;;;14.20;;
4140;SDS011;2084;51.05870200;6.92092300;2022-08-21T06:32:00;23.67;;;12.57;;
4140;SDS011;2084;51.05870200;6.92092300;2022-08-21T06:34:27;20.00;;;13.40;;
4140;SDS011;2084;51.05870200;6.92092300;2022-08-21T06:36:54;15.00;;;11.97;;
4140;SDS011;2084;51.05870200;6.92092300;2022-08-21T06:39:21;16.93;;;12.67;;
4140;SDS011;2084;51.05870200;6.92092300;2022-08-21T06:41:47;21.03;;;12.87;;
4140;SDS011;2084;51.05870200;6.92092300;2022-08-21T06:44:15;15.73;;;12.00;;
4140;SDS011;2084;51.05870200;6.92092300;2022-08-21T06:46:44;20.47;;;13.50;;
4140;SDS011;2084;51.05870200;6.92092300;2022-08-21T06:49:10;19.27;;;10.70;;
4140;SDS011;2084;51.05870200;6.92092300;2022-08-21T06:51:37;12.60;;;11.30;;
4140;SDS011;2084;51.05870200;6.92092300;2022-08-21T06:54:04;17.53;;;12.13;;
4140;SDS011;2084;51.05870200;6.92092300;2022-08-21T06:56:31;15.33;;;10.83;;
4140;SDS011;2084;51.05870200;6.92092300;2022-08-21T06:58:58;17.10;;;12.53;;
4140;SDS011;2084;51.05870200;6.92092300;2022-08-21T07:01:25;21.07;;;12.30;;
4140;SDS011;2084;51.05870200;6.92092300;2022-08-21T07:03:54;20.47;;;11.13;;
4140;SDS011;2084;51.05870200;6.92092300;2022-08-21T07:06:20;13.00;;;11.40;;
4140;SDS011;2084;51.05870200;6.92092300;2022-08-21T07:08:47;17.07;;;10.90;;
4140;SDS011;2084;51.05870200;6.92092300;2022-08-21T07:11:15;19.60;;;9.20;;
4140;SDS011;2084;51.05870200;6.92092300;2022-08-21T07:13:44;9.40;;;7.80;;
4140;SDS011;2084;51.05870200;6.92092300;2022-08-21T07:16:11;8.03;;;7.00;;
4140;SDS011;2084;51.05870200;6.92092300;2022-08-21T07:18:37;9.43;;;6.80;;
4140;SDS011;2084;51.05870200;6.92092300;2022-08-21T07:21:06;13.63;;;5.30;;
4140;SDS011;2084;51.05870200;6.92092300;2022-08-21T07:23:35;9.40;;;6.63;;
4140;SDS011;2084;51.05870200;6.92092300;2022-08-21T07:26:05;8.97;;;5.70;;
4140;SDS011;2084;51.05870200;6.92092300;2022-08-21T07:28:32;9.70;;;6.00;;
4140;SDS011;2084;51.05870200;6.92092300;2022-08-21T07:30:59;11.50;;;4.50;;
4140;SDS011;2084;51.05870200;6.92092300;2022-08-21T07:33:28;18.30;;;5.00;;
4140;SDS011;2084;51.05870200;6.92092300;2022-08-21T07:35:56;5.83;;;5.33;;
4140;SDS011;2084;51.05870200;6.92092300;2022-08-21T07:38:24;15.27;;;5.70;;
4140;SDS011;2084;51.05870200;6.92092300;2022-08-21T07:40:52;7.10;;;3.77;;
4140;SDS011;2084;51.05870200;6.92092300;2022-08-21T07:43:21;7.00;;;4.33;;
4140;SDS011;2084;51.05870200;6.92092300;2022-08-21T07:45:48;12.63;;;4.57;;
4140;SDS011;2084;51.05870200;6.92092300;2022-08-21T07:48:15;9.53;;;4.17;;
4140;SDS011;2084;51.05870200;6.92092300;2022-08-21T07:50:42;11.97;;;5.60;;
4140;SDS011;2084;51.05870200;6.92092300;2022-08-21T07:53:09;9.53;;;4.30;;
4140;SDS011;2084;51.05870200;6.92092300;2022-08-21T07:55:37;9.70;;;4.30;;
4140;SDS011;2084;51.05870200;6.92092300;2022-08-21T07:58:03;12.77;;;4.27;;
4140;SDS011;2084;51.05870200;6.92092300;2022-08-21T08:00:30;5.27;;;3.17;;
4140;SDS011;2084;51.05870200;6.92092300;2022-08-21T08:02:57;5.73;;;4.07;;
4140;SDS011;2084;51.05870200;6.92092300;2022-08-21T08:05:24;9.77;;;3.90;;
4140;SDS011;2084;51.05870200;6.92092300;2022-08-21T08:07:52;15.50;;;4.30;;
4140;SDS011;2084;51.05870200;6.92092300;2022-08-21T08:10:19;11.00;;;4.23;;
4140;SDS011;2084;51.05870200;6.92092300;2022-08-21T08:12:48;4.10;;;3.70;;
4140;SDS011;2084;51.05870200;6.92092300;2022-08-21T08:15:17;8.13;;;3.83;;
4140;SDS011;2084;51.05870200;6.92092300;2022-08-21T08:17:47;12.97;;;3.13;;
4140;SDS011;2084;51.05870200;6.92092300;2022-08-21T08:20:14;2.93;;;2.70;;
4140;SDS011;2084;51.05870200;6.92092300;2022-08-21T08:22:43;19.67;;;3.77;;
4140;SDS011;2084;51.05870200;6.92092300;2022-08-21T08:25:10;7.33;;;2.87;;
4140;SDS011;2084;51.05870200;6.92092300;2022-08-21T08:27:38;5.77;;;2.03;;
4140;SDS011;2084;51.05870200;6.92092300;2022-08-21T08:30:08;3.50;;;1.83;;
4140;SDS011;2084;51.05870200;6.92092300;2022-08-21T08:32:36;8.57;;;1.97;;
4140;SDS011;2084;51.05870200;6.92092300;2022-08-21T08:35:04;5.60;;;2.27;;
4140;SDS011;2084;51.05870200;6.92092300;2022-08-21T08:37:32;11.73;;;4.27;;
4140;SDS011;2084;51.05870200;6.92092300;2022-08-21T08:39:59;13.63;;;3.00;;
4140;SDS011;2084;51.05870200;6.92092300;2022-08-21T08:42:27;9.37;;;3.20;;
4140;SDS011;2084;51.05870200;6.92092300;2022-08-21T08:44:58;2.33;;;2.13;;
4140;SDS011;2084;51.05870200;6.92092300;2022-08-21T08:47:30;14.13;;;2.47;;
4140;SDS011;2084;51.05870200;6.92092300;2022-08-21T08:50:02;12.93;;;3.20;;
4140;SDS011;2084;51.05870200;6.92092300;2022-08-21T08:52:32;12.63;;;3.00;;
4140;SDS011;2084;51.05870200;6.92092300;2022-08-21T08:55:02;2.60;;;2.00;;
4140;SDS011;2084;51.05870200;6.92092300;2022-08-21T08:57:32;5.70;;;3.57;;
4140;SDS011;2084;51.05870200;6.92092300;2022-08-21T09:00:00;4.00;;;2.23;;
4140;SDS011;2084;51.05870200;6.92092300;2022-08-21T09:02:34;4.30;;;2.90;;
4140;SDS011;2084;51.05870200;6.92092300;2022-08-21T09:05:02;2.30;;;1.50;;
4140;SDS011;2084;51.05870200;6.92092300;2022-08-21T09:07:33;7.17;;;2.10;;
4140;SDS011;2084;51.05870200;6.92092300;2022-08-21T09:10:10;3.47;;;2.30;;
4140;SDS011;2084;51.05870200;6.92092300;2022-08-21T09:12:45;4.10;;;2.07;;
4140;SDS011;2084;51.05870200;6.92092300;2022-08-21T09:15:23;4.23;;;2.60;;
4140;SDS011;2084;51.05870200;6.92092300;2022-08-21T09:18:02;7.47;;;2.07;;
4140;SDS011;2084;51.05870200;6.92092300;2022-08-21T09:20:41;2.20;;;1.60;;
4140;SDS011;2084;51.05870200;6.92092300;2022-08-21T09:23:32;4.93;;;2.37;;
4140;SDS011;2084;51.05870200;6.92092300;2022-08-21T09:26:06;11.63;;;1.90;;
4140;SDS011;2084;51.05870200;6.92092300;2022-08-21T09:28:38;6.90;;;2.10;;
4140;SDS011;2084;51.05870200;6.92092300;2022-08-21T09:31:06;5.13;;;1.67;;
4140;SDS011;2084;51.05870200;6.92092300;2022-08-21T09:33:39;2.60;;;2.30;;
4140;SDS011;2084;51.05870200;6.92092300;2022-08-21T09:36:06;2.30;;;1.77;;
4140;SDS011;2084;51.05870200;6.92092300;2022-08-21T09:38:33;3.43;;;1.90;;
4140;SDS011;2084;51.05870200;6.92092300;2022-08-21T09:41:03;1.60;;;1.50;;
4140;SDS011;2084;51.05870200;6.92092300;2022-08-21T09:43:32;7.30;;;2.57;;
4140;SDS011;2084;51.05870200;6.92092300;2022-08-21T09:46:04;3.20;;;2.13;;
4140;SDS011;2084;51.05870200;6.92092300;2022-08-21T09:48:41;6.50;;;1.83;;
4140;SDS011;2084;51.05870200;6.92092300;2022-08-21T09:51:10;6.00;;;1.80;;
4140;SDS011;2084;51.05870200;6.92092300;2022-08-21T09:53:39;2.90;;;1.63;;
4140;SDS011;2084;51.05870200;6.92092300;2022-08-21T09:56:18;7.37;;;3.80;;
4140;SDS011;2084;51.05870200;6.92092300;2022-08-21T09:59:15;5.80;;;1.90;;
4140;SDS011;2084;51.05870200;6.92092300;2022-08-21T10:01:47;9.50;;;4.20;;
4140;SDS011;2084;51.05870200;6.92092300;2022-08-21T10:04:20;4.80;;;1.83;;
4140;SDS011;2084;51.05870200;6.92092300;2022-08-21T10:06:49;3.03;;;2.50;;
4140;SDS011;2084;51.05870200;6.92092300;2022-08-21T10:09:16;7.23;;;2.10;;
4140;SDS011;2084;51.05870200;6.92092300;2022-08-21T10:14:40;3.00;;;1.63;;
4140;SDS011;2084;51.05870200;6.92092300;2022-08-21T10:17:14;6.57;;;2.60;;
4140;SDS011;2084;51.05870200;6.92092300;2022-08-21T10:19:50;4.93;;;1.10;;
4140;SDS011;2084;51.05870200;6.92092300;2022-08-21T10:22:28;5.93;;;1.23;;
4140;SDS011;2084;51.05870200;6.92092300;2022-08-21T10:25:02;6.53;;;2.20;;
4140;SDS011;2084;51.05870200;6.92092300;2022-08-21T10:27:37;4.43;;;1.73;;
4140;SDS011;2084;51.05870200;6.92092300;2022-08-21T10:30:11;7.70;;;1.37;;
4140;SDS011;2084;51.05870200;6.92092300;2022-08-21T10:32:43;2.60;;;1.40;;
4140;SDS011;2084;51.05870200;6.92092300;2022-08-21T10:35:27;4.20;;;1.77;;
4140;SDS011;2084;51.05870200;6.92092300;2022-08-21T10:41:11;1.77;;;1.60;;
4140;SDS011;2084;51.05870200;6.92092300;2022-08-21T10:43:49;7.17;;;1.23;;
4140;SDS011;2084;51.05870200;6.92092300;2022-08-21T10:46:25;5.80;;;1.53;;
4140;SDS011;2084;51.05870200;6.92092300;2022-08-21T10:49:04;2.60;;;1.20;;
4140;SDS011;2084;51.05870200;6.92092300;2022-08-21T10:51:45;2.33;;;1.33;;
4140;SDS011;2084;51.05870200;6.92092300;2022-08-21T10:54:26;8.70;;;1.77;;
4140;SDS011;2084;51.05870200;6.92092300;2022-08-21T10:57:04;2.93;;;1.13;;
4140;SDS011;2084;51.05870200;6.92092300;2022-08-21T10:59:38;4.53;;;1.33;;
4140;SDS011;2084;51.05870200;6.92092300;2022-08-21T11:02:11;4.57;;;1.67;;
4140;SDS011;2084;51.05870200;6.92092300;2022-08-21T11:04:48;4.67;;;1.27;;
4140;SDS011;2084;51.05870200;6.92092300;2022-08-21T11:07:25;1.67;;;1.53;;
4140;SDS011;2084;51.05870200;6.92092300;2022-08-21T11:09:55;6.13;;;1.33;;
4140;SDS011;2084;51.05870200;6.92092300;2022-08-21T11:12:29;3.70;;;1.30;;
4140;SDS011;2084;51.05870200;6.92092300;2022-08-21T11:15:00;6.10;;;1.70;;
4140;SDS011;2084;51.05870200;6.92092300;2022-08-21T11:17:32;1.27;;;1.17;;
4140;SDS011;2084;51.05870200;6.92092300;2022-08-21T11:20:05;1.50;;;1.10;;
4140;SDS011;2084;51.05870200;6.92092300;2022-08-21T11:22:39;3.83;;;1.10;;
4140;SDS011;2084;51.05870200;6.92092300;2022-08-21T11:25:11;4.83;;;1.73;;
4140;SDS011;2084;51.05870200;6.92092300;2022-08-21T11:27:44;1.93;;;1.20;;
4140;SDS011;2084;51.05870200;6.92092300;2022-08-21T11:30:15;10.37;;;1.40;;
4140;SDS011;2084;51.05870200;6.92092300;2022-08-21T11:32:48;4.80;;;1.20;;
4140;SDS011;2084;51.05870200;6.92092300;2022-08-21T11:35:36;3.40;;;1.00;;
4140;SDS011;2084;51.05870200;6.92092300;2022-08-21T11:38:14;2.30;;;1.80;;
4140;SDS011;2084;51.05870200;6.92092300;2022-08-21T11:40:54;7.23;;;1.47;;
4140;SDS011;2084;51.05870200;6.92092300;2022-08-21T11:43:33;2.50;;;1.03;;
4140;SDS011;2084;51.05870200;6.92092300;2022-08-21T11:46:09;9.37;;;1.47;;
4140;SDS011;2084;51.05870200;6.92092300;2022-08-21T11:48:44;1.33;;;1.23;;
4140;SDS011;2084;51.05870200;6.92092300;2022-08-21T11:51:25;4.23;;;1.43;;
4140;SDS011;2084;51.05870200;6.92092300;2022-08-21T11:54:02;6.23;;;1.80;;
4140;SDS011;2084;51.05870200;6.92092300;2022-08-21T11:56:33;12.13;;;1.40;;
4140;SDS011;2084;51.05870200;6.92092300;2022-08-21T11:59:04;3.40;;;1.60;;
4140;SDS011;2084;51.05870200;6.92092300;2022-08-21T12:01:36;3.30;;;1.53;;
4140;SDS011;2084;51.05870200;6.92092300;2022-08-21T12:04:07;5.27;;;1.40;;
4140;SDS011;2084;51.05870200;6.92092300;2022-08-21T12:06:42;3.33;;;1.10;;
4140;SDS011;2084;51.05870200;6.92092300;2022-08-21T12:09:30;3.73;;;0.90;;
4140;SDS011;2084;51.05870200;6.92092300;2022-08-21T12:12:01;4.10;;;2.73;;
4140;SDS011;2084;51.05870200;6.92092300;2022-08-21T12:14:35;8.30;;;3.73;;
4140;SDS011;2084;51.05870200;6.92092300;2022-08-21T12:17:05;3.17;;;1.90;;
4140;SDS011;2084;51.05870200;6.92092300;2022-08-21T12:19:32;2.23;;;1.00;;
4140;SDS011;2084;51.05870200;6.92092300;2022-08-21T12:22:07;4.60;;;1.10;;
4140;SDS011;2084;51.05870200;6.92092300;2022-08-21T12:24:37;3.70;;;1.70;;
4140;SDS011;2084;51.05870200;6.92092300;2022-08-21T12:27:14;6.07;;;1.53;;
4140;SDS011;2084;51.05870200;6.92092300;2022-08-21T12:29:51;9.47;;;2.60;;
4140;SDS011;2084;51.05870200;6.92092300;2022-08-21T12:32:23;6.70;;;1.40;;
4140;SDS011;2084;51.05870200;6.92092300;2022-08-21T12:34:52;2.37;;;1.37;;
4140;SDS011;2084;51.05870200;6.92092300;2022-08-21T12:37:25;3.90;;;1.17;;
4140;SDS011;2084;51.05870200;6.92092300;2022-08-21T12:40:03;5.60;;;0.97;;
4140;SDS011;2084;51.05870200;6.92092300;2022-08-21T12:42:36;8.43;;;1.40;;
4140;SDS011;2084;51.05870200;6.92092300;2022-08-21T12:45:11;3.37;;;1.73;;
4140;SDS011;2084;51.05870200;6.92092300;2022-08-21T12:47:45;1.20;;;1.10;;
4140;SDS011;2084;51.05870200;6.92092300;2022-08-21T12:50:18;4.50;;;1.60;;
4140;SDS011;2084;51.05870200;6.92092300;2022-08-21T12:52:48;2.00;;;1.27;;
4140;SDS011;2084;51.05870200;6.92092300;2022-08-21T12:55:27;3.90;;;1.53;;
4140;SDS011;2084;51.05870200;6.92092300;2022-08-21T12:57:55;5.10;;;1.00;;
4140;SDS011;2084;51.05870200;6.92092300;2022-08-21T13:00:23;9.33;;;1.40;;
4140;SDS011;2084;51.05870200;6.92092300;2022-08-21T13:02:51;5.83;;;1.00;;
4140;SDS011;2084;51.05870200;6.92092300;2022-08-21T13:05:30;3.70;;;2.37;;
4140;SDS011;2084;51.05870200;6.92092300;2022-08-21T13:08:03;2.27;;;1.27;;
4140;SDS011;2084;51.05870200;6.92092300;2022-08-21T13:10:32;1.67;;;1.20;;
4140;SDS011;2084;51.05870200;6.92092300;2022-08-21T13:13:01;8.30;;;2.70;;
4140;SDS011;2084;51.05870200;6.92092300;2022-08-21T13:15:32;3.23;;;1.10;;
4140;SDS011;2084;51.05870200;6.92092300;2022-08-21T13:18:02;3.80;;;0.93;;